Montville, Connecticut
Current Conditions -  °F | °C
As of 6:56 PM on Thursday 27 Nov 2014 (Local Time) from KGON Reporting Station
Light Snow Light Snow  
Wind Chill: 27°   Ceiling: 5500
Heat Index: 33°   Visibility: 4mi
Dew Point: 32°   Wind: 7mph
Humidity: 96%   Direction: 340°NNW
Pressure: 30"   Gusts: NA
Location:  41.45°N, 72.14°W
Report Text: KGON 272356Z 34006KT 4SM -SN BR FEW045 OVC055 01/00 A3000 RMK AO2 SLP157 P0000 60000 T00060000 10039 20006 51011 $
Loading
Personal Weather Stations






























Interactive Weather Map New forecast layout! Learn more

10-Day Weather Forecast

Advertisements
Track Severe Weather on mobile